sensor_id;sensor_type;location;lat;lon;timestamp;P1;durP1;ratioP1;P2;durP2;ratioP2
4738;SDS011;2383;48.632;10.156;2023-02-15T00:03:28;40.10;;;17.87;;
4738;SDS011;2383;48.632;10.156;2023-02-15T00:07:30;31.43;;;16.27;;
4738;SDS011;2383;48.632;10.156;2023-02-15T00:11:32;41.03;;;16.80;;
4738;SDS011;2383;48.632;10.156;2023-02-15T00:15:52;58.40;;;17.67;;
4738;SDS011;2383;48.632;10.156;2023-02-15T00:19:54;45.77;;;17.47;;
4738;SDS011;2383;48.632;10.156;2023-02-15T00:23:57;33.80;;;16.57;;
4738;SDS011;2383;48.632;10.156;2023-02-15T00:28:00;25.10;;;15.87;;
4738;SDS011;2383;48.632;10.156;2023-02-15T00:32:02;28.70;;;16.20;;
4738;SDS011;2383;48.632;10.156;2023-02-15T00:36:05;36.93;;;15.30;;
4738;SDS011;2383;48.632;10.156;2023-02-15T00:40:08;24.13;;;15.60;;
4738;SDS011;2383;48.632;10.156;2023-02-15T00:44:11;27.37;;;17.17;;
4738;SDS011;2383;48.632;10.156;2023-02-15T00:48:13;25.80;;;16.17;;
4738;SDS011;2383;48.632;10.156;2023-02-15T00:52:15;50.77;;;16.00;;
4738;SDS011;2383;48.632;10.156;2023-02-15T00:56:17;44.33;;;17.30;;
4738;SDS011;2383;48.632;10.156;2023-02-15T01:00:19;80.33;;;16.27;;
4738;SDS011;2383;48.632;10.156;2023-02-15T01:04:21;32.80;;;17.03;;
4738;SDS011;2383;48.632;10.156;2023-02-15T01:08:23;34.60;;;16.37;;
4738;SDS011;2383;48.632;10.156;2023-02-15T01:12:25;29.87;;;16.07;;
4738;SDS011;2383;48.632;10.156;2023-02-15T01:16:28;28.93;;;17.03;;
4738;SDS011;2383;48.632;10.156;2023-02-15T01:20:33;23.80;;;16.00;;
4738;SDS011;2383;48.632;10.156;2023-02-15T01:24:37;37.07;;;16.33;;
4738;SDS011;2383;48.632;10.156;2023-02-15T01:28:39;22.07;;;15.47;;
4738;SDS011;2383;48.632;10.156;2023-02-15T01:32:41;24.00;;;14.80;;
4738;SDS011;2383;48.632;10.156;2023-02-15T01:36:44;34.80;;;15.60;;
4738;SDS011;2383;48.632;10.156;2023-02-15T01:40:52;35.30;;;14.50;;
4738;SDS011;2383;48.632;10.156;2023-02-15T01:44:55;47.73;;;15.97;;
4738;SDS011;2383;48.632;10.156;2023-02-15T01:49:08;48.70;;;15.50;;
4738;SDS011;2383;48.632;10.156;2023-02-15T01:57:28;27.70;;;14.97;;
4738;SDS011;2383;48.632;10.156;2023-02-15T02:01:30;21.80;;;14.27;;
4738;SDS011;2383;48.632;10.156;2023-02-15T02:05:33;22.23;;;15.60;;
4738;SDS011;2383;48.632;10.156;2023-02-15T02:09:35;33.60;;;16.13;;
4738;SDS011;2383;48.632;10.156;2023-02-15T02:13:39;41.20;;;16.30;;
4738;SDS011;2383;48.632;10.156;2023-02-15T02:35:42;23.87;;;14.87;;
4738;SDS011;2383;48.632;10.156;2023-02-15T02:48:38;23.83;;;15.17;;
4738;SDS011;2383;48.632;10.156;2023-02-15T02:52:45;22.70;;;15.20;;
4738;SDS011;2383;48.632;10.156;2023-02-15T02:56:47;23.30;;;14.43;;
4738;SDS011;2383;48.632;10.156;2023-02-15T03:05:16;25.57;;;14.73;;
4738;SDS011;2383;48.632;10.156;2023-02-15T03:09:29;23.40;;;13.97;;
4738;SDS011;2383;48.632;10.156;2023-02-15T03:13:47;26.80;;;13.60;;
4738;SDS011;2383;48.632;10.156;2023-02-15T03:17:55;22.17;;;13.77;;
4738;SDS011;2383;48.632;10.156;2023-02-15T03:22:05;24.03;;;14.23;;
4738;SDS011;2383;48.632;10.156;2023-02-15T03:26:12;21.23;;;13.43;;
4738;SDS011;2383;48.632;10.156;2023-02-15T03:30:15;37.27;;;13.37;;
4738;SDS011;2383;48.632;10.156;2023-02-15T03:34:20;32.57;;;13.13;;
4738;SDS011;2383;48.632;10.156;2023-02-15T03:38:26;24.93;;;12.73;;
4738;SDS011;2383;48.632;10.156;2023-02-15T03:42:34;44.70;;;14.03;;
4738;SDS011;2383;48.632;10.156;2023-02-15T03:46:48;19.50;;;13.23;;
4738;SDS011;2383;48.632;10.156;2023-02-15T03:51:05;28.90;;;12.70;;
4738;SDS011;2383;48.632;10.156;2023-02-15T03:55:30;16.90;;;12.57;;
4738;SDS011;2383;48.632;10.156;2023-02-15T03:59:32;19.03;;;12.17;;
4738;SDS011;2383;48.632;10.156;2023-02-15T04:03:57;16.97;;;11.23;;
4738;SDS011;2383;48.632;10.156;2023-02-15T04:08:04;17.97;;;11.57;;
4738;SDS011;2383;48.632;10.156;2023-02-15T04:12:06;20.53;;;12.03;;
4738;SDS011;2383;48.632;10.156;2023-02-15T04:16:09;16.93;;;12.03;;
4738;SDS011;2383;48.632;10.156;2023-02-15T04:20:12;16.63;;;12.07;;
4738;SDS011;2383;48.632;10.156;2023-02-15T04:24:33;43.40;;;11.60;;
4738;SDS011;2383;48.632;10.156;2023-02-15T04:28:53;17.77;;;12.07;;
4738;SDS011;2383;48.632;10.156;2023-02-15T04:32:55;44.60;;;12.40;;
4738;SDS011;2383;48.632;10.156;2023-02-15T04:36:58;21.33;;;13.60;;
4738;SDS011;2383;48.632;10.156;2023-02-15T04:41:00;27.73;;;12.67;;
4738;SDS011;2383;48.632;10.156;2023-02-15T04:45:02;20.10;;;11.63;;
4738;SDS011;2383;48.632;10.156;2023-02-15T04:49:04;16.43;;;12.10;;
4738;SDS011;2383;48.632;10.156;2023-02-15T04:53:06;17.63;;;11.80;;
4738;SDS011;2383;48.632;10.156;2023-02-15T04:57:08;17.47;;;12.23;;
4738;SDS011;2383;48.632;10.156;2023-02-15T05:01:10;16.83;;;11.80;;
4738;SDS011;2383;48.632;10.156;2023-02-15T05:05:12;26.67;;;11.77;;
4738;SDS011;2383;48.632;10.156;2023-02-15T05:09:16;16.27;;;11.30;;
4738;SDS011;2383;48.632;10.156;2023-02-15T05:13:18;24.57;;;12.17;;
4738;SDS011;2383;48.632;10.156;2023-02-15T05:17:23;19.30;;;11.03;;
4738;SDS011;2383;48.632;10.156;2023-02-15T05:21:25;20.27;;;11.40;;
4738;SDS011;2383;48.632;10.156;2023-02-15T05:25:27;15.43;;;10.80;;
4738;SDS011;2383;48.632;10.156;2023-02-15T05:29:47;23.53;;;11.13;;
4738;SDS011;2383;48.632;10.156;2023-02-15T05:33:49;14.80;;;10.67;;
4738;SDS011;2383;48.632;10.156;2023-02-15T05:37:51;14.53;;;10.60;;
4738;SDS011;2383;48.632;10.156;2023-02-15T05:41:53;16.37;;;10.37;;
4738;SDS011;2383;48.632;10.156;2023-02-15T05:45:55;15.57;;;11.50;;
4738;SDS011;2383;48.632;10.156;2023-02-15T05:49:57;15.37;;;10.77;;
4738;SDS011;2383;48.632;10.156;2023-02-15T05:53:59;15.10;;;10.60;;
4738;SDS011;2383;48.632;10.156;2023-02-15T05:58:01;14.60;;;10.33;;
4738;SDS011;2383;48.632;10.156;2023-02-15T06:02:03;18.27;;;10.97;;
4738;SDS011;2383;48.632;10.156;2023-02-15T06:06:05;14.73;;;10.63;;
4738;SDS011;2383;48.632;10.156;2023-02-15T06:10:07;19.53;;;12.10;;
4738;SDS011;2383;48.632;10.156;2023-02-15T06:14:10;28.13;;;11.23;;
4738;SDS011;2383;48.632;10.156;2023-02-15T06:18:12;15.53;;;11.23;;
4738;SDS011;2383;48.632;10.156;2023-02-15T06:22:14;12.80;;;9.67;;
4738;SDS011;2383;48.632;10.156;2023-02-15T06:26:16;16.17;;;11.30;;
4738;SDS011;2383;48.632;10.156;2023-02-15T06:30:18;14.50;;;9.63;;
4738;SDS011;2383;48.632;10.156;2023-02-15T06:34:20;15.03;;;10.43;;
4738;SDS011;2383;48.632;10.156;2023-02-15T06:38:22;15.97;;;10.17;;
4738;SDS011;2383;48.632;10.156;2023-02-15T06:42:24;17.73;;;11.27;;
4738;SDS011;2383;48.632;10.156;2023-02-15T06:46:26;17.20;;;10.53;;
4738;SDS011;2383;48.632;10.156;2023-02-15T06:50:29;21.57;;;11.03;;
4738;SDS011;2383;48.632;10.156;2023-02-15T06:54:31;18.13;;;11.07;;
4738;SDS011;2383;48.632;10.156;2023-02-15T06:58:33;17.87;;;11.63;;
4738;SDS011;2383;48.632;10.156;2023-02-15T07:02:36;21.73;;;11.90;;
4738;SDS011;2383;48.632;10.156;2023-02-15T07:06:38;16.20;;;11.47;;
4738;SDS011;2383;48.632;10.156;2023-02-15T07:10:43;17.73;;;10.67;;
4738;SDS011;2383;48.632;10.156;2023-02-15T07:14:45;20.50;;;12.43;;
4738;SDS011;2383;48.632;10.156;2023-02-15T07:18:47;18.87;;;12.17;;
4738;SDS011;2383;48.632;10.156;2023-02-15T07:22:49;19.97;;;12.33;;
4738;SDS011;2383;48.632;10.156;2023-02-15T07:26:52;16.07;;;11.10;;
4738;SDS011;2383;48.632;10.156;2023-02-15T07:30:54;17.03;;;11.30;;
4738;SDS011;2383;48.632;10.156;2023-02-15T07:34:56;27.00;;;12.27;;
4738;SDS011;2383;48.632;10.156;2023-02-15T07:38:58;18.67;;;13.07;;
4738;SDS011;2383;48.632;10.156;2023-02-15T07:43:00;19.10;;;12.20;;
4738;SDS011;2383;48.632;10.156;2023-02-15T07:47:02;23.57;;;12.03;;
4738;SDS011;2383;48.632;10.156;2023-02-15T07:51:05;17.20;;;11.53;;
4738;SDS011;2383;48.632;10.156;2023-02-15T07:55:08;23.80;;;11.90;;
4738;SDS011;2383;48.632;10.156;2023-02-15T07:59:13;27.23;;;12.40;;
4738;SDS011;2383;48.632;10.156;2023-02-15T08:03:15;29.93;;;13.07;;
4738;SDS011;2383;48.632;10.156;2023-02-15T08:07:17;27.17;;;14.10;;
4738;SDS011;2383;48.632;10.156;2023-02-15T08:11:21;27.27;;;15.23;;
4738;SDS011;2383;48.632;10.156;2023-02-15T08:15:26;30.77;;;16.23;;
4738;SDS011;2383;48.632;10.156;2023-02-15T08:19:29;29.13;;;16.83;;
4738;SDS011;2383;48.632;10.156;2023-02-15T08:23:33;42.10;;;18.03;;
4738;SDS011;2383;48.632;10.156;2023-02-15T08:27:35;35.57;;;19.10;;
4738;SDS011;2383;48.632;10.156;2023-02-15T08:31:36;51.87;;;21.13;;
4738;SDS011;2383;48.632;10.156;2023-02-15T08:35:39;54.13;;;20.77;;
4738;SDS011;2383;48.632;10.156;2023-02-15T08:39:41;47.07;;;22.17;;
4738;SDS011;2383;48.632;10.156;2023-02-15T08:43:45;50.97;;;20.73;;
4738;SDS011;2383;48.632;10.156;2023-02-15T08:47:48;51.90;;;23.07;;
4738;SDS011;2383;48.632;10.156;2023-02-15T08:51:50;61.27;;;24.20;;
4738;SDS011;2383;48.632;10.156;2023-02-15T08:55:56;55.60;;;25.23;;
4738;SDS011;2383;48.632;10.156;2023-02-15T08:59:58;57.07;;;27.93;;
4738;SDS011;2383;48.632;10.156;2023-02-15T09:04:02;56.60;;;24.73;;
4738;SDS011;2383;48.632;10.156;2023-02-15T09:08:06;41.67;;;21.80;;
4738;SDS011;2383;48.632;10.156;2023-02-15T09:12:08;25.07;;;15.07;;
4738;SDS011;2383;48.632;10.156;2023-02-15T09:16:10;24.10;;;14.57;;
4738;SDS011;2383;48.632;10.156;2023-02-15T09:20:12;22.97;;;15.10;;
4738;SDS011;2383;48.632;10.156;2023-02-15T09:24:14;20.73;;;14.43;;
4738;SDS011;2383;48.632;10.156;2023-02-15T09:28:18;20.87;;;14.60;;
4738;SDS011;2383;48.632;10.156;2023-02-15T09:32:20;24.33;;;14.63;;
4738;SDS011;2383;48.632;10.156;2023-02-15T09:36:27;25.00;;;16.43;;
4738;SDS011;2383;48.632;10.156;2023-02-15T09:40:33;23.57;;;14.27;;
4738;SDS011;2383;48.632;10.156;2023-02-15T09:45:02;22.47;;;14.87;;
4738;SDS011;2383;48.632;10.156;2023-02-15T09:49:11;23.70;;;15.90;;
4738;SDS011;2383;48.632;10.156;2023-02-15T09:53:42;22.57;;;14.73;;
4738;SDS011;2383;48.632;10.156;2023-02-15T10:02:32;22.20;;;13.67;;
4738;SDS011;2383;48.632;10.156;2023-02-15T10:06:46;22.97;;;15.80;;
4738;SDS011;2383;48.632;10.156;2023-02-15T10:33:03;27.23;;;17.20;;
4738;SDS011;2383;48.632;10.156;2023-02-15T10:41:46;38.53;;;19.53;;
4738;SDS011;2383;48.632;10.156;2023-02-15T10:46:06;32.20;;;20.17;;
4738;SDS011;2383;48.632;10.156;2023-02-15T11:16:02;44.10;;;24.00;;
4738;SDS011;2383;48.632;10.156;2023-02-15T11:20:38;45.03;;;23.90;;
4738;SDS011;2383;48.632;10.156;2023-02-15T11:24:50;48.00;;;25.73;;
4738;SDS011;2383;48.632;10.156;2023-02-15T11:28:59;50.20;;;29.50;;
4738;SDS011;2383;48.632;10.156;2023-02-15T11:33:18;46.40;;;27.30;;
4738;SDS011;2383;48.632;10.156;2023-02-15T11:42:00;45.00;;;24.87;;
4738;SDS011;2383;48.632;10.156;2023-02-15T11:46:05;44.20;;;24.03;;
4738;SDS011;2383;48.632;10.156;2023-02-15T11:50:13;39.77;;;23.00;;
4738;SDS011;2383;48.632;10.156;2023-02-15T11:54:20;42.23;;;24.00;;
4738;SDS011;2383;48.632;10.156;2023-02-15T12:02:38;35.83;;;21.27;;
4738;SDS011;2383;48.632;10.156;2023-02-15T12:06:46;40.17;;;23.50;;
4738;SDS011;2383;48.632;10.156;2023-02-15T12:15:09;39.70;;;22.57;;
4738;SDS011;2383;48.632;10.156;2023-02-15T12:23:32;40.87;;;22.97;;
4738;SDS011;2383;48.632;10.156;2023-02-15T12:27:36;45.83;;;27.27;;
4738;SDS011;2383;48.632;10.156;2023-02-15T12:31:44;47.63;;;26.57;;
4738;SDS011;2383;48.632;10.156;2023-02-15T12:35:54;47.70;;;25.33;;
4738;SDS011;2383;48.632;10.156;2023-02-15T12:40:20;50.00;;;26.37;;
4738;SDS011;2383;48.632;10.156;2023-02-15T12:44:25;58.67;;;31.93;;
4738;SDS011;2383;48.632;10.156;2023-02-15T12:48:30;62.23;;;31.73;;
4738;SDS011;2383;48.632;10.156;2023-02-15T12:52:32;64.97;;;32.97;;
4738;SDS011;2383;48.632;10.156;2023-02-15T12:56:34;62.80;;;30.83;;
4738;SDS011;2383;48.632;10.156;2023-02-15T13:00:36;57.07;;;30.60;;
4738;SDS011;2383;48.632;10.156;2023-02-15T13:04:38;57.07;;;28.20;;
4738;SDS011;2383;48.632;10.156;2023-02-15T13:08:51;62.87;;;30.57;;
4738;SDS011;2383;48.632;10.156;2023-02-15T13:12:55;56.80;;;30.00;;
4738;SDS011;2383;48.632;10.156;2023-02-15T13:17:00;58.67;;;31.57;;
4738;SDS011;2383;48.632;10.156;2023-02-15T13:21:13;71.60;;;35.03;;
4738;SDS011;2383;48.632;10.156;2023-02-15T13:25:21;74.40;;;33.20;;
4738;SDS011;2383;48.632;10.156;2023-02-15T13:29:29;66.50;;;32.20;;
4738;SDS011;2383;48.632;10.156;2023-02-15T13:33:36;70.53;;;32.90;;
4738;SDS011;2383;48.632;10.156;2023-02-15T13:51:21;73.80;;;36.13;;
4738;SDS011;2383;48.632;10.156;2023-02-15T14:12:49;64.57;;;32.40;;
4738;SDS011;2383;48.632;10.156;2023-02-15T14:25:29;70.83;;;35.37;;
4738;SDS011;2383;48.632;10.156;2023-02-15T14:29:53;71.57;;;33.30;;
4738;SDS011;2383;48.632;10.156;2023-02-15T14:34:00;62.93;;;33.27;;
4738;SDS011;2383;48.632;10.156;2023-02-15T14:42:20;66.97;;;33.57;;
4738;SDS011;2383;48.632;10.156;2023-02-15T14:50:40;65.47;;;33.00;;
4738;SDS011;2383;48.632;10.156;2023-02-15T15:02:50;63.33;;;32.83;;
4738;SDS011;2383;48.632;10.156;2023-02-15T15:15:45;64.13;;;33.73;;
4738;SDS011;2383;48.632;10.156;2023-02-15T15:23:53;62.77;;;31.57;;
4738;SDS011;2383;48.632;10.156;2023-02-15T15:27:55;61.77;;;32.27;;
4738;SDS011;2383;48.632;10.156;2023-02-15T15:31:57;66.90;;;33.20;;
4738;SDS011;2383;48.632;10.156;2023-02-15T15:40:18;63.13;;;33.40;;
4738;SDS011;2383;48.632;10.156;2023-02-15T15:44:47;59.90;;;30.20;;
4738;SDS011;2383;48.632;10.156;2023-02-15T15:49:13;53.97;;;28.83;;
4738;SDS011;2383;48.632;10.156;2023-02-15T15:53:23;55.87;;;31.93;;
4738;SDS011;2383;48.632;10.156;2023-02-15T15:57:33;55.20;;;29.40;;
4738;SDS011;2383;48.632;10.156;2023-02-15T16:01:40;58.10;;;30.43;;
4738;SDS011;2383;48.632;10.156;2023-02-15T16:05:44;56.83;;;31.57;;
4738;SDS011;2383;48.632;10.156;2023-02-15T16:09:53;67.50;;;34.87;;
4738;SDS011;2383;48.632;10.156;2023-02-15T16:13:59;49.13;;;31.90;;
4738;SDS011;2383;48.632;10.156;2023-02-15T16:18:02;48.83;;;29.97;;
4738;SDS011;2383;48.632;10.156;2023-02-15T16:22:07;58.27;;;32.83;;
4738;SDS011;2383;48.632;10.156;2023-02-15T16:26:29;71.63;;;37.53;;
4738;SDS011;2383;48.632;10.156;2023-02-15T16:35:16;45.57;;;27.07;;
4738;SDS011;2383;48.632;10.156;2023-02-15T16:39:20;46.53;;;27.03;;
4738;SDS011;2383;48.632;10.156;2023-02-15T16:43:26;48.60;;;27.47;;
4738;SDS011;2383;48.632;10.156;2023-02-15T16:47:32;61.40;;;29.43;;
4738;SDS011;2383;48.632;10.156;2023-02-15T16:51:41;51.30;;;29.40;;
4738;SDS011;2383;48.632;10.156;2023-02-15T16:55:47;58.33;;;30.07;;
4738;SDS011;2383;48.632;10.156;2023-02-15T16:59:53;73.07;;;28.70;;
4738;SDS011;2383;48.632;10.156;2023-02-15T17:04:12;103.57;;;30.77;;
4738;SDS011;2383;48.632;10.156;2023-02-15T17:12:43;100.67;;;28.00;;
4738;SDS011;2383;48.632;10.156;2023-02-15T17:16:49;88.60;;;29.13;;
4738;SDS011;2383;48.632;10.156;2023-02-15T17:20:57;74.30;;;29.40;;
4738;SDS011;2383;48.632;10.156;2023-02-15T17:25:02;72.70;;;26.60;;
4738;SDS011;2383;48.632;10.156;2023-02-15T17:41:39;59.73;;;26.17;;
4738;SDS011;2383;48.632;10.156;2023-02-15T17:45:46;68.20;;;26.23;;
4738;SDS011;2383;48.632;10.156;2023-02-15T17:49:50;61.87;;;28.17;;
4738;SDS011;2383;48.632;10.156;2023-02-15T17:53:53;51.03;;;26.03;;
4738;SDS011;2383;48.632;10.156;2023-02-15T17:58:15;51.67;;;27.03;;
4738;SDS011;2383;48.632;10.156;2023-02-15T18:02:19;63.60;;;26.53;;
4738;SDS011;2383;48.632;10.156;2023-02-15T18:06:40;64.03;;;27.20;;
4738;SDS011;2383;48.632;10.156;2023-02-15T18:11:02;68.37;;;26.80;;
4738;SDS011;2383;48.632;10.156;2023-02-15T18:15:23;93.70;;;27.17;;
4738;SDS011;2383;48.632;10.156;2023-02-15T18:19:26;146.17;;;27.67;;
4738;SDS011;2383;48.632;10.156;2023-02-15T18:23:28;114.97;;;25.97;;
4738;SDS011;2383;48.632;10.156;2023-02-15T18:27:30;122.30;;;27.53;;
4738;SDS011;2383;48.632;10.156;2023-02-15T18:31:32;98.13;;;27.73;;
4738;SDS011;2383;48.632;10.156;2023-02-15T18:35:34;54.90;;;27.17;;
4738;SDS011;2383;48.632;10.156;2023-02-15T18:39:46;98.20;;;25.33;;
4738;SDS011;2383;48.632;10.156;2023-02-15T18:43:50;71.30;;;24.13;;
4738;SDS011;2383;48.632;10.156;2023-02-15T18:47:54;107.17;;;25.07;;
4738;SDS011;2383;48.632;10.156;2023-02-15T18:51:56;53.53;;;23.10;;
4738;SDS011;2383;48.632;10.156;2023-02-15T18:55:58;74.63;;;24.40;;
4738;SDS011;2383;48.632;10.156;2023-02-15T19:00:00;44.40;;;22.73;;
4738;SDS011;2383;48.632;10.156;2023-02-15T19:04:02;58.50;;;22.60;;
4738;SDS011;2383;48.632;10.156;2023-02-15T19:08:04;76.53;;;25.37;;
4738;SDS011;2383;48.632;10.156;2023-02-15T19:12:13;44.27;;;19.87;;
4738;SDS011;2383;48.632;10.156;2023-02-15T19:16:25;59.23;;;21.07;;
4738;SDS011;2383;48.632;10.156;2023-02-15T19:24:39;38.83;;;20.27;;
4738;SDS011;2383;48.632;10.156;2023-02-15T19:28:44;38.13;;;19.03;;
4738;SDS011;2383;48.632;10.156;2023-02-15T19:32:46;37.23;;;19.67;;
4738;SDS011;2383;48.632;10.156;2023-02-15T19:36:49;77.20;;;20.47;;
4738;SDS011;2383;48.632;10.156;2023-02-15T19:40:54;31.50;;;16.50;;
4738;SDS011;2383;48.632;10.156;2023-02-15T19:45:01;29.23;;;18.40;;
4738;SDS011;2383;48.632;10.156;2023-02-15T19:49:06;28.37;;;19.17;;
4738;SDS011;2383;48.632;10.156;2023-02-15T19:53:31;60.67;;;21.93;;
4738;SDS011;2383;48.632;10.156;2023-02-15T19:57:32;43.50;;;20.30;;
4738;SDS011;2383;48.632;10.156;2023-02-15T20:01:34;52.77;;;21.20;;
4738;SDS011;2383;48.632;10.156;2023-02-15T20:05:36;34.10;;;20.83;;
4738;SDS011;2383;48.632;10.156;2023-02-15T20:09:39;42.17;;;19.67;;
4738;SDS011;2383;48.632;10.156;2023-02-15T20:13:41;47.83;;;18.80;;
4738;SDS011;2383;48.632;10.156;2023-02-15T20:17:43;46.30;;;21.50;;
4738;SDS011;2383;48.632;10.156;2023-02-15T20:21:46;50.27;;;20.77;;
4738;SDS011;2383;48.632;10.156;2023-02-15T20:25:56;70.40;;;17.33;;
4738;SDS011;2383;48.632;10.156;2023-02-15T20:29:59;40.53;;;18.00;;
4738;SDS011;2383;48.632;10.156;2023-02-15T20:34:01;37.03;;;16.60;;
4738;SDS011;2383;48.632;10.156;2023-02-15T20:38:04;39.30;;;15.37;;
4738;SDS011;2383;48.632;10.156;2023-02-15T20:42:08;39.37;;;16.03;;
4738;SDS011;2383;48.632;10.156;2023-02-15T20:46:13;37.23;;;15.70;;
4738;SDS011;2383;48.632;10.156;2023-02-15T20:50:16;48.17;;;16.47;;
4738;SDS011;2383;48.632;10.156;2023-02-15T20:54:22;35.73;;;16.03;;
4738;SDS011;2383;48.632;10.156;2023-02-15T20:58:27;42.23;;;15.93;;
4738;SDS011;2383;48.632;10.156;2023-02-15T21:02:30;49.17;;;15.73;;
4738;SDS011;2383;48.632;10.156;2023-02-15T21:06:32;32.30;;;16.00;;
4738;SDS011;2383;48.632;10.156;2023-02-15T21:10:34;24.00;;;16.17;;
4738;SDS011;2383;48.632;10.156;2023-02-15T21:14:36;20.37;;;14.40;;
4738;SDS011;2383;48.632;10.156;2023-02-15T21:18:38;60.77;;;17.73;;
4738;SDS011;2383;48.632;10.156;2023-02-15T21:22:42;43.27;;;17.67;;
4738;SDS011;2383;48.632;10.156;2023-02-15T21:26:45;31.37;;;15.20;;
4738;SDS011;2383;48.632;10.156;2023-02-15T21:30:48;24.20;;;15.63;;
4738;SDS011;2383;48.632;10.156;2023-02-15T21:34:51;40.90;;;16.63;;
4738;SDS011;2383;48.632;10.156;2023-02-15T21:38:53;64.10;;;16.87;;
4738;SDS011;2383;48.632;10.156;2023-02-15T21:42:55;39.60;;;15.00;;
4738;SDS011;2383;48.632;10.156;2023-02-15T21:51:49;64.70;;;19.77;;
4738;SDS011;2383;48.632;10.156;2023-02-15T21:56:17;38.67;;;17.53;;
4738;SDS011;2383;48.632;10.156;2023-02-15T22:00:21;44.73;;;17.23;;
4738;SDS011;2383;48.632;10.156;2023-02-15T22:04:26;32.13;;;18.20;;
4738;SDS011;2383;48.632;10.156;2023-02-15T22:08:29;53.87;;;18.87;;
4738;SDS011;2383;48.632;10.156;2023-02-15T22:12:31;127.63;;;31.27;;
4738;SDS011;2383;48.632;10.156;2023-02-15T22:16:34;190.87;;;60.33;;
4738;SDS011;2383;48.632;10.156;2023-02-15T22:20:36;154.37;;;45.47;;
4738;SDS011;2383;48.632;10.156;2023-02-15T22:24:38;88.43;;;19.10;;
4738;SDS011;2383;48.632;10.156;2023-02-15T22:28:40;181.53;;;56.13;;
4738;SDS011;2383;48.632;10.156;2023-02-15T22:32:43;83.23;;;20.50;;
4738;SDS011;2383;48.632;10.156;2023-02-15T22:36:45;36.80;;;16.90;;
4738;SDS011;2383;48.632;10.156;2023-02-15T22:40:47;37.70;;;17.50;;
4738;SDS011;2383;48.632;10.156;2023-02-15T22:44:51;27.37;;;16.33;;
4738;SDS011;2383;48.632;10.156;2023-02-15T22:48:55;27.13;;;16.67;;
4738;SDS011;2383;48.632;10.156;2023-02-15T22:53:00;80.63;;;17.90;;
4738;SDS011;2383;48.632;10.156;2023-02-15T22:57:03;22.37;;;15.87;;
4738;SDS011;2383;48.632;10.156;2023-02-15T23:01:07;35.77;;;16.37;;
4738;SDS011;2383;48.632;10.156;2023-02-15T23:05:26;61.10;;;18.60;;
4738;SDS011;2383;48.632;10.156;2023-02-15T23:09:30;62.70;;;18.67;;
4738;SDS011;2383;48.632;10.156;2023-02-15T23:13:32;122.73;;;19.17;;
4738;SDS011;2383;48.632;10.156;2023-02-15T23:17:34;103.87;;;20.43;;
4738;SDS011;2383;48.632;10.156;2023-02-15T23:21:36;26.63;;;16.10;;
4738;SDS011;2383;48.632;10.156;2023-02-15T23:25:38;51.63;;;16.50;;
4738;SDS011;2383;48.632;10.156;2023-02-15T23:29:41;77.53;;;20.37;;
4738;SDS011;2383;48.632;10.156;2023-02-15T23:33:43;35.70;;;16.37;;
4738;SDS011;2383;48.632;10.156;2023-02-15T23:37:46;33.17;;;16.73;;
4738;SDS011;2383;48.632;10.156;2023-02-15T23:41:48;43.80;;;18.83;;
4738;SDS011;2383;48.632;10.156;2023-02-15T23:45:51;33.00;;;17.27;;
4738;SDS011;2383;48.632;10.156;2023-02-15T23:49:53;44.37;;;17.00;;
4738;SDS011;2383;48.632;10.156;2023-02-15T23:53:55;60.23;;;16.77;;
4738;SDS011;2383;48.632;10.156;2023-02-15T23:57:58;49.43;;;17.27;;
